Time;durP1;ratioP1;P1;durP2;ratioP2;P2;SDS_P1;SDS_P2;PMS_P1;PMS_P2;Temp;Humidity;BMP_temperature;BMP_pressure;BME280_temperature;BME280_humidity;BME280_pressure;Samples;Min_cycle;Max_cycle;Signal;HPM_P1;HPM_P2
2021/04/14 00:02:12;;;;;;;56.63;20.52;;;10.70;77.80;;;;;;5073813;28;20033;-71
2021/04/14 00:04:38;;;;;;;48.03;19.98;;;10.70;77.70;;;;;;5075032;28;20029;-71
2021/04/14 00:07:06;;;;;;;55.53;20.08;;;10.70;77.60;;;;;;5074377;28;20058;-72
2021/04/14 00:09:32;;;;;;;43.00;18.17;;;10.70;77.50;;;;;;5075331;28;20398;-73
2021/04/14 00:11:58;;;;;;;40.13;17.45;;;10.70;78.20;;;;;;5074196;28;20028;-72
2021/04/14 00:14:24;;;;;;;31.98;17.08;;;10.60;77.50;;;;;;5074304;28;20024;-71
2021/04/14 00:16:50;;;;;;;31.88;17.30;;;10.60;77.50;;;;;;5075539;28;20025;-71
2021/04/14 00:19:16;;;;;;;38.75;17.02;;;10.60;77.50;;;;;;5075217;28;20158;-72
2021/04/14 00:21:42;;;;;;;29.48;15.85;;;10.60;77.40;;;;;;5075572;28;20035;-71
2021/04/14 00:24:13;;;;;;;31.83;17.10;;;10.60;77.40;;;;;;5075056;28;20035;-71
2021/04/14 00:26:39;;;;;;;29.45;16.90;;;10.60;77.40;;;;;;5075091;28;20114;-72
2021/04/14 00:29:05;;;;;;;32.53;16.00;;;10.50;77.30;;;;;;5074910;28;20107;-71
2021/04/14 00:31:37;;;;;;;27.13;16.50;;;10.50;77.20;;;;;;5073484;28;20478;-72
2021/04/14 00:34:13;;;;;;;28.23;15.75;;;10.50;77.20;;;;;;5074057;28;20035;-71
2021/04/14 00:36:42;;;;;;;23.67;14.77;;;10.50;77.20;;;;;;5074728;28;20023;-72
2021/04/14 00:39:14;;;;;;;23.63;13.85;;;10.40;77.00;;;;;;5074771;28;20056;-71
2021/04/14 00:41:42;;;;;;;21.20;13.45;;;10.40;77.10;;;;;;5074929;28;20078;-72
2021/04/14 00:44:08;;;;;;;21.73;13.68;;;10.30;77.10;;;;;;5073517;28;20024;-72
2021/04/14 00:46:33;;;;;;;26.27;13.90;;;10.30;77.10;;;;;;5074720;28;20078;-71
2021/04/14 00:48:59;;;;;;;25.38;14.15;;;10.20;77.20;;;;;;5074661;28;20028;-70
2021/04/14 00:51:25;;;;;;;32.53;15.32;;;10.20;77.20;;;;;;5074584;28;20540;-70
2021/04/14 00:53:52;;;;;;;30.25;15.48;;;10.20;77.30;;;;;;5074690;28;20386;-71
2021/04/14 00:56:18;;;;;;;38.03;16.58;;;10.10;77.30;;;;;;5074374;28;20111;-71
2021/04/14 00:58:43;;;;;;;52.92;18.80;;;10.10;77.40;;;;;;5073325;28;20040;-71
2021/04/14 01:01:09;;;;;;;53.03;19.23;;;10.10;77.40;;;;;;5074401;28;20033;-72
2021/04/14 01:03:38;;;;;;;53.08;19.90;;;10.10;77.40;;;;;;5074281;28;20039;-71
2021/04/14 01:06:17;;;;;;;61.38;20.00;;;10.00;77.40;;;;;;5074183;28;20373;-71
2021/04/14 01:08:43;;;;;;;61.15;20.15;;;10.00;77.50;;;;;;5074536;28;20020;-71
2021/04/14 01:11:11;;;;;;;50.50;19.00;;;10.00;77.50;;;;;;5074231;28;20035;-71
2021/04/14 01:13:37;;;;;;;46.25;18.20;;;9.90;77.60;;;;;;5074185;28;20029;-71
2021/04/14 01:16:03;;;;;;;50.20;19.58;;;9.90;77.70;;;;;;5074241;28;20098;-71
2021/04/14 01:18:36;;;;;;;30.98;16.27;;;9.90;77.80;;;;;;5073953;28;20421;-71
2021/04/14 01:21:07;;;;;;;32.97;16.42;;;9.90;78.00;;;;;;5073782;28;20111;-72
2021/04/14 01:23:33;;;;;;;35.88;16.90;;;9.80;78.10;;;;;;5073826;28;20078;-72
2021/04/14 01:26:00;;;;;;;35.45;16.90;;;9.80;78.30;;;;;;5073697;28;20029;-71
2021/04/14 01:28:34;;;;;;;32.72;15.50;;;9.70;78.50;;;;;;5074124;28;20054;-72
2021/04/14 01:31:01;;;;;;;25.88;14.32;;;9.70;79.40;;;;;;5073782;28;20127;-72
2021/04/14 01:33:31;;;;;;;26.45;15.80;;;9.70;78.90;;;;;;5074057;28;20378;-72
2021/04/14 01:35:58;;;;;;;27.65;17.30;;;9.70;79.00;;;;;;5072563;28;20041;-71
2021/04/14 01:38:23;;;;;;;28.33;17.75;;;9.70;79.10;;;;;;5073859;28;20036;-72
2021/04/14 01:40:49;;;;;;;31.80;17.45;;;9.70;79.10;;;;;;5073559;28;20032;-72
2021/04/14 01:43:15;;;;;;;27.75;16.52;;;9.60;79.00;;;;;;5073571;28;20102;-72
2021/04/14 01:45:44;;;;;;;27.48;16.58;;;9.70;79.10;;;;;;5073016;28;20028;-72
2021/04/14 01:48:11;;;;;;;26.17;16.35;;;9.60;79.10;;;;;;5073634;28;20492;-71
2021/04/14 01:50:37;;;;;;;24.30;15.32;;;9.60;79.10;;;;;;5073349;28;20039;-71
2021/04/14 01:53:05;;;;;;;23.15;15.88;;;9.60;79.20;;;;;;5073247;28;20056;-71
2021/04/14 01:55:31;;;;;;;27.05;16.85;;;9.60;79.30;;;;;;5072995;28;20099;-71
2021/04/14 01:57:59;;;;;;;29.85;16.85;;;9.60;79.40;;;;;;5073304;28;20028;-71
2021/04/14 02:00:45;;;;;;;30.85;18.30;;;9.50;79.50;;;;;;5073299;28;20024;-71
2021/04/14 02:03:12;;;;;;;33.95;16.77;;;9.50;79.60;;;;;;5072160;28;20073;-71
2021/04/14 02:05:38;;;;;;;29.75;16.85;;;9.40;79.60;;;;;;5072944;28;20486;-71
2021/04/14 02:08:04;;;;;;;31.58;17.00;;;9.30;79.70;;;;;;5073077;28;20132;-72
2021/04/14 02:10:32;;;;;;;30.17;17.70;;;9.30;79.80;;;;;;5072792;28;20060;-70
2021/04/14 02:13:01;;;;;;;29.90;17.42;;;9.30;80.10;;;;;;5073124;28;20028;-71
2021/04/14 02:15:30;;;;;;;31.02;17.23;;;9.20;80.20;;;;;;5073131;28;20548;-71
2021/04/14 02:17:56;;;;;;;30.95;17.95;;;9.20;80.30;;;;;;5071783;28;20032;-71
2021/04/14 02:20:23;;;;;;;34.30;17.80;;;9.10;80.40;;;;;;5072304;28;20040;-72
2021/04/14 02:22:50;;;;;;;34.67;18.35;;;9.10;80.40;;;;;;5073105;28;20024;-71
2021/04/14 02:25:17;;;;;;;31.05;17.73;;;9.10;80.70;;;;;;5072929;28;20485;-72
2021/04/14 02:27:43;;;;;;;29.17;16.42;;;9.00;80.80;;;;;;5073322;28;20447;-72
2021/04/14 02:30:13;;;;;;;34.05;17.95;;;9.00;81.00;;;;;;5072811;28;20033;-73
2021/04/14 02:32:39;;;;;;;28.58;17.42;;;9.00;81.10;;;;;;5073141;28;20461;-74
2021/04/14 02:35:05;;;;;;;31.88;17.95;;;8.90;81.10;;;;;;5073016;28;20060;-72
2021/04/14 02:37:31;;;;;;;36.47;17.73;;;8.90;81.30;;;;;;5072735;28;20033;-73
2021/04/14 02:39:57;;;;;;;32.08;17.38;;;8.90;81.30;;;;;;5073198;28;20537;-72
2021/04/14 02:42:23;;;;;;;31.63;17.42;;;8.90;81.50;;;;;;5073457;28;20049;-72
2021/04/14 02:44:48;;;;;;;36.33;17.77;;;8.80;81.60;;;;;;5073400;28;20032;-71
2021/04/14 02:47:14;;;;;;;37.28;17.45;;;8.80;81.60;;;;;;5072999;28;20040;-72
2021/04/14 02:49:40;;;;;;;40.75;19.45;;;8.80;81.70;;;;;;5072882;28;20454;-72
2021/04/14 02:52:06;;;;;;;31.33;17.45;;;8.80;81.70;;;;;;5071645;28;20036;-72
2021/04/14 02:54:31;;;;;;;31.90;16.55;;;8.80;81.70;;;;;;5072428;28;20025;-73
2021/04/14 02:56:57;;;;;;;35.47;17.85;;;8.80;81.70;;;;;;5072964;28;20041;-72
2021/04/14 02:59:23;;;;;;;40.72;18.65;;;8.80;81.70;;;;;;5076533;28;20028;-72
2021/04/14 03:01:48;;;;;;;34.08;18.77;;;8.70;81.60;;;;;;5075486;28;20458;-71
2021/04/14 03:04:16;;;;;;;43.75;18.85;;;8.70;81.70;;;;;;5076727;28;20078;-72
2021/04/14 03:06:42;;;;;;;39.90;18.40;;;8.70;81.70;;;;;;5076585;28;20112;-71
2021/04/14 03:09:08;;;;;;;32.28;17.98;;;8.70;81.80;;;;;;5076454;28;20107;-71
2021/04/14 03:11:34;;;;;;;32.03;17.48;;;8.60;81.80;;;;;;5074568;28;20043;-72
2021/04/14 03:14:00;;;;;;;26.80;15.48;;;8.70;81.90;;;;;;5076360;28;20025;-72
2021/04/14 03:16:26;;;;;;;33.13;17.13;;;8.70;81.90;;;;;;5076543;28;20488;-72
2021/04/14 03:18:52;;;;;;;28.38;16.90;;;8.60;82.50;;;;;;5076107;28;20410;-71
2021/04/14 03:21:19;;;;;;;31.15;17.67;;;8.60;82.10;;;;;;5076488;28;20466;-72
2021/04/14 03:23:44;;;;;;;28.58;16.85;;;8.60;82.20;;;;;;5076365;28;20382;-72
2021/04/14 03:26:10;;;;;;;26.23;16.42;;;8.60;82.10;;;;;;5076304;28;20078;-72
2021/04/14 03:28:36;;;;;;;28.63;17.85;;;8.60;82.20;;;;;;5075946;28;20028;-72
2021/04/14 03:31:02;;;;;;;35.13;18.10;;;8.60;82.20;;;;;;5076348;28;20410;-71
2021/04/14 03:33:27;;;;;;;33.55;18.88;;;8.60;82.20;;;;;;5075996;28;20028;-72
2021/04/14 03:35:53;;;;;;;37.00;20.52;;;8.60;82.10;;;;;;5076146;28;20039;-72
2021/04/14 03:38:20;;;;;;;35.60;19.48;;;8.60;82.10;;;;;;5076110;28;20496;-72
2021/04/14 03:40:45;;;;;;;35.45;20.08;;;8.60;82.00;;;;;;5076010;28;20028;-73
2021/04/14 03:43:11;;;;;;;34.75;19.02;;;8.70;82.00;;;;;;5076027;28;20039;-73
2021/04/14 03:45:44;;;;;;;36.05;20.08;;;8.70;82.00;;;;;;5074602;28;20399;-74
2021/04/14 03:48:11;;;;;;;31.90;19.20;;;8.70;82.00;;;;;;5074630;28;20032;-73
2021/04/14 03:50:37;;;;;;;37.20;20.73;;;8.80;81.90;;;;;;5075833;28;20033;-73
2021/04/14 03:53:23;;;;;;;37.35;18.83;;;8.80;81.90;;;;;;5074478;28;20058;-71
2021/04/14 03:55:56;;;;;;;30.42;18.33;;;8.80;81.70;;;;;;5076092;28;20082;-71
2021/04/14 03:58:23;;;;;;;35.90;19.38;;;8.90;81.50;;;;;;5075506;28;20381;-73
2021/04/14 04:00:57;;;;;;;39.30;19.83;;;8.90;81.40;;;;;;5075142;28;20077;-71
2021/04/14 04:03:24;;;;;;;56.28;23.27;;;8.90;81.30;;;;;;5068917;28;20021;-72
2021/04/14 04:05:51;;;;;;;49.63;21.73;;;8.90;81.30;;;;;;5065159;28;20021;-72
2021/04/14 04:08:17;;;;;;;49.35;21.85;;;9.00;81.20;;;;;;5064029;28;20035;-72
2021/04/14 04:10:43;;;;;;;49.90;22.90;;;9.10;81.10;;;;;;5069050;28;20056;-72
2021/04/14 04:13:09;;;;;;;50.10;24.65;;;9.10;80.80;;;;;;5075311;28;20056;-72
2021/04/14 04:15:36;;;;;;;52.45;23.15;;;9.20;80.60;;;;;;5075270;28;20115;-72
2021/04/14 04:18:03;;;;;;;50.17;24.05;;;9.20;80.40;;;;;;5075322;28;20112;-72
2021/04/14 04:20:29;;;;;;;51.75;24.70;;;9.30;80.30;;;;;;5075377;28;20057;-71
2021/04/14 04:22:55;;;;;;;51.33;26.63;;;9.30;80.10;;;;;;5075137;28;20039;-72
2021/04/14 04:25:20;;;;;;;55.35;30.85;;;9.40;79.80;;;;;;5075208;28;20020;-71
2021/04/14 04:27:46;;;;;;;43.80;24.50;;;9.50;79.50;;;;;;5074761;28;20084;-71
2021/04/14 04:30:13;;;;;;;43.13;22.17;;;9.50;79.10;;;;;;5074627;28;20035;-73
2021/04/14 04:32:39;;;;;;;42.80;20.88;;;9.50;79.00;;;;;;5074725;28;20039;-72
2021/04/14 04:35:07;;;;;;;49.50;22.77;;;9.60;78.80;;;;;;5075010;28;20028;-72
2021/04/14 04:37:33;;;;;;;43.88;22.58;;;9.60;78.60;;;;;;5073516;28;20021;-73
2021/04/14 04:39:59;;;;;;;41.00;20.00;;;9.60;78.50;;;;;;5075004;28;20028;-71
2021/04/14 04:42:25;;;;;;;42.65;21.15;;;9.70;78.50;;;;;;5074905;28;20109;-72
2021/04/14 04:44:51;;;;;;;35.13;20.48;;;9.70;78.50;;;;;;5074772;28;20466;-72
2021/04/14 04:47:16;;;;;;;36.40;20.33;;;9.70;78.50;;;;;;5074948;28;20104;-72
2021/04/14 04:49:42;;;;;;;36.40;20.30;;;9.80;78.30;;;;;;5074370;28;20104;-72
2021/04/14 04:52:08;;;;;;;35.47;19.40;;;9.80;78.20;;;;;;5074228;28;20032;-72
2021/04/14 04:54:34;;;;;;;32.42;19.42;;;9.80;78.00;;;;;;5073247;28;20020;-72
2021/04/14 04:57:00;;;;;;;32.55;19.27;;;9.80;77.70;;;;;;5073215;28;20030;-73
2021/04/14 04:59:26;;;;;;;35.25;19.98;;;9.80;77.70;;;;;;5070648;28;20016;-72
2021/04/14 05:01:56;;;;;;;34.58;20.45;;;9.90;77.80;;;;;;5072848;28;20020;-72
2021/04/14 05:04:22;;;;;;;35.50;20.10;;;9.80;77.50;;;;;;5072923;28;20021;-73
2021/04/14 05:06:48;;;;;;;35.53;20.52;;;9.80;77.40;;;;;;5072886;28;20112;-72
2021/04/14 05:09:14;;;;;;;29.23;17.92;;;9.80;77.40;;;;;;5073036;28;20083;-73
2021/04/14 05:11:40;;;;;;;29.30;18.73;;;9.90;77.30;;;;;;5072460;28;20024;-73
2021/04/14 05:14:06;;;;;;;26.70;18.05;;;9.90;77.20;;;;;;5070202;28;20052;-72
2021/04/14 05:16:32;;;;;;;31.08;18.25;;;9.90;77.00;;;;;;5073601;28;20027;-73
2021/04/14 05:18:58;;;;;;;28.70;16.88;;;9.90;76.80;;;;;;5073831;28;20053;-72
2021/04/14 05:21:24;;;;;;;26.83;17.88;;;9.90;76.70;;;;;;5073836;28;20033;-72
2021/04/14 05:23:50;;;;;;;25.75;16.50;;;10.00;76.70;;;;;;5073887;28;20026;-72
2021/04/14 05:26:16;;;;;;;28.35;17.20;;;10.00;76.50;;;;;;5074407;28;20025;-72
2021/04/14 05:28:43;;;;;;;30.80;17.17;;;10.00;76.20;;;;;;5074255;28;20059;-73
2021/04/14 05:31:10;;;;;;;32.97;18.15;;;10.00;76.20;;;;;;5074061;28;20025;-71
2021/04/14 05:33:35;;;;;;;27.33;17.13;;;10.10;76.10;;;;;;5073235;28;20107;-72
2021/04/14 05:36:01;;;;;;;30.70;16.10;;;10.10;76.00;;;;;;5073088;28;20119;-72
2021/04/14 05:38:28;;;;;;;33.33;17.15;;;10.20;75.90;;;;;;5073449;28;20113;-73
2021/04/14 05:40:54;;;;;;;28.60;16.83;;;10.30;75.40;;;;;;5073313;28;20103;-72
2021/04/14 05:43:37;;;;;;;28.33;16.27;;;10.40;75.10;;;;;;5071922;28;20024;-72
2021/04/14 05:46:10;;;;;;;22.33;15.65;;;10.50;74.80;;;;;;5073410;28;20128;-73
2021/04/14 05:48:37;;;;;;;28.10;15.80;;;10.60;74.60;;;;;;5073862;28;20028;-73
2021/04/14 05:51:06;;;;;;;27.85;16.75;;;10.70;74.00;;;;;;5071656;28;20465;-75
2021/04/14 05:53:33;;;;;;;28.10;16.75;;;10.80;73.50;;;;;;5072878;28;20017;-72
2021/04/14 05:56:00;;;;;;;24.35;15.75;;;10.90;72.90;;;;;;5072892;28;20017;-72
2021/04/14 05:58:26;;;;;;;27.38;17.35;;;11.00;72.60;;;;;;5072771;28;20020;-72
2021/04/14 06:00:52;;;;;;;27.75;16.63;;;11.10;72.30;;;;;;5072979;28;20459;-72
2021/04/14 06:03:18;;;;;;;30.67;16.30;;;11.20;72.40;;;;;;5073384;28;20028;-73
2021/04/14 06:05:43;;;;;;;44.22;21.80;;;11.30;72.40;;;;;;5073115;28;20032;-72
2021/04/14 06:08:09;;;;;;;31.02;17.13;;;11.50;71.70;;;;;;5073139;28;20421;-72
2021/04/14 06:10:35;;;;;;;25.77;16.30;;;11.60;70.80;;;;;;5072647;28;20036;-72
2021/04/14 06:13:01;;;;;;;26.08;16.88;;;11.70;70.10;;;;;;5071797;28;20100;-72
2021/04/14 06:15:33;;;;;;;34.58;19.15;;;11.70;69.60;;;;;;5071656;28;20065;-72
2021/04/14 06:18:01;;;;;;;33.08;17.70;;;11.70;69.60;;;;;;5071744;28;20036;-73
2021/04/14 06:20:29;;;;;;;34.58;17.80;;;11.80;69.50;;;;;;5072043;28;20384;-72
2021/04/14 06:22:58;;;;;;;25.25;16.48;;;11.80;69.00;;;;;;5070447;28;20024;-72
2021/04/14 06:25:25;;;;;;;32.45;18.15;;;11.90;68.90;;;;;;5069064;28;20374;-72
2021/04/14 06:30:18;;;;;;;32.70;17.83;;;12.20;68.30;;;;;;5071621;28;20471;-73
2021/04/14 06:32:44;;;;;;;25.15;15.93;;;12.30;68.10;;;;;;5068278;28;20419;-73
2021/04/14 06:35:11;;;;;;;27.88;17.73;;;12.50;67.60;;;;;;5071678;28;20059;-74
2021/04/14 06:37:37;;;;;;;41.10;19.02;;;12.70;67.10;;;;;;5071081;28;20444;-74
2021/04/14 06:43:17;;;;;;;35.05;18.92;;;12.90;66.00;;;;;;5058914;28;20078;-72
2021/04/14 06:45:45;;;;;;;77.60;28.80;;;13.10;65.50;;;;;;5071350;28;20052;-73
2021/04/14 06:48:43;;;;;;;59.25;25.30;;;13.30;64.80;;;;;;5071173;28;20490;-72
2021/04/14 06:51:38;;;;;;;42.35;20.98;;;13.40;64.00;;;;;;5065959;28;20533;-73
2021/04/14 06:54:15;;;;;;;40.38;19.38;;;13.60;63.30;;;;;;5071238;28;20043;-72
2021/04/14 06:56:41;;;;;;;34.55;17.50;;;13.70;63.30;;;;;;5071300;28;20104;-72
2021/04/14 06:59:18;;;;;;;32.75;19.60;;;13.90;63.00;;;;;;5071086;28;20121;-74
2021/04/14 07:01:55;;;;;;;37.95;18.02;;;14.10;62.20;;;;;;5071315;28;20075;-73
2021/04/14 07:04:27;;;;;;;35.85;18.23;;;14.30;61.80;;;;;;5071229;28;20043;-72
2021/04/14 07:06:53;;;;;;;38.13;19.70;;;14.50;61.30;;;;;;5071010;28;20040;-73
2021/04/14 07:09:35;;;;;;;29.38;17.70;;;14.70;60.70;;;;;;5071258;28;20103;-73
2021/04/14 07:12:06;;;;;;;32.08;18.27;;;14.80;59.70;;;;;;5070602;28;20037;-73
2021/04/14 07:14:31;;;;;;;27.30;16.85;;;14.90;59.60;;;;;;5071248;28;20382;-72
2021/04/14 07:17:26;;;;;;;36.03;20.45;;;15.00;59.00;;;;;;5070926;28;20136;-73
2021/04/14 07:20:18;;;;;;;26.77;16.20;;;15.20;58.00;;;;;;5065998;28;20113;-74
2021/04/14 07:23:01;;;;;;;26.83;16.50;;;15.40;57.20;;;;;;5069711;28;20034;-72
2021/04/14 07:25:45;;;;;;;29.10;15.90;;;15.50;56.60;;;;;;5068783;28;20052;-72
2021/04/14 07:28:48;;;;;;;21.95;12.80;;;15.70;56.30;;;;;;5069283;28;20028;-72
2021/04/14 07:31:34;;;;;;;20.70;14.57;;;15.80;56.10;;;;;;5069400;28;20486;-72
2021/04/14 07:34:23;;;;;;;22.85;15.43;;;16.00;55.40;;;;;;5070696;28;20035;-73
2021/04/14 07:37:05;;;;;;;28.77;15.95;;;15.90;55.00;;;;;;5072327;28;20025;-73
2021/04/14 07:39:53;;;;;;;37.28;20.05;;;16.00;55.10;;;;;;5072152;28;20028;-73
2021/04/14 07:42:41;;;;;;;31.05;21.45;;;16.10;54.90;;;;;;5072009;28;20029;-72
2021/04/14 07:45:25;;;;;;;30.17;17.38;;;16.10;54.60;;;;;;5075430;28;20086;-72
2021/04/14 07:47:56;;;;;;;19.45;14.57;;;16.10;54.60;;;;;;5075913;28;20106;-73
2021/04/14 07:50:30;;;;;;;29.73;14.77;;;16.20;54.60;;;;;;5075896;28;20028;-72
2021/04/14 07:52:57;;;;;;;34.13;19.67;;;16.30;54.40;;;;;;5075418;28;20060;-72
2021/04/14 07:55:33;;;;;;;37.85;20.27;;;16.40;54.20;;;;;;5075473;28;20037;-72
2021/04/14 07:58:08;;;;;;;25.58;14.13;;;16.40;53.70;;;;;;5074516;28;20103;-73
2021/04/14 08:00:41;;;;;;;33.05;17.50;;;16.60;53.40;;;;;;5072039;28;20028;-76
2021/04/14 08:03:08;;;;;;;34.45;16.17;;;16.70;53.30;;;;;;5074267;28;20056;-73
2021/04/14 08:05:34;;;;;;;25.17;14.73;;;16.70;52.90;;;;;;5074122;28;20048;-74
2021/04/14 08:08:00;;;;;;;24.13;13.95;;;16.80;52.50;;;;;;5073985;28;20097;-72
2021/04/14 08:10:29;;;;;;;28.50;16.67;;;17.00;52.30;;;;;;5072826;28;20466;-73
2021/04/14 08:13:05;;;;;;;27.40;15.57;;;17.20;51.90;;;;;;5067139;28;20017;-72
2021/04/14 08:15:45;;;;;;;35.47;15.55;;;17.50;51.30;;;;;;5071199;28;20020;-73
2021/04/14 08:18:16;;;;;;;36.00;14.57;;;17.90;50.60;;;;;;5071049;28;20021;-73
2021/04/14 08:21:03;;;;;;;25.58;14.68;;;18.10;50.30;;;;;;5073790;28;20063;-72
2021/04/14 08:23:31;;;;;;;10.05;5.80;;;18.30;49.90;;;;;;5072954;28;20486;-71
2021/04/14 08:26:00;;;;;;;11.45;5.43;;;18.60;48.50;;;;;;5073826;28;20112;-72
2021/04/14 08:28:42;;;;;;;6.78;4.43;;;18.70;47.30;;;;;;5073897;28;20108;-72
2021/04/14 08:31:18;;;;;;;8.07;4.63;;;18.90;45.90;;;;;;5074447;28;20040;-72
2021/04/14 08:33:44;;;;;;;9.57;5.15;;;19.20;45.30;;;;;;5075076;28;20020;-73
2021/04/14 08:36:26;;;;;;;7.55;4.38;;;19.40;45.20;;;;;;5075676;28;20051;-73
2021/04/14 08:38:52;;;;;;;9.68;5.82;;;20.10;44.80;;;;;;5074585;28;20410;-72
2021/04/14 08:41:36;;;;;;;7.88;5.20;;;20.70;43.80;;;;;;5074818;28;20028;-72
2021/04/14 08:44:10;;;;;;;7.25;4.35;;;20.60;42.50;;;;;;5074751;28;20021;-72
2021/04/14 08:46:40;;;;;;;6.10;4.95;;;20.50;42.10;;;;;;5074950;28;20065;-73
2021/04/14 08:49:23;;;;;;;11.63;6.03;;;20.70;42.80;;;;;;5074248;28;20532;-72
2021/04/14 08:51:52;;;;;;;8.80;5.50;;;21.50;42.30;;;;;;5074549;28;20037;-73
2021/04/14 08:54:31;;;;;;;9.95;6.22;;;22.20;41.70;;;;;;5074053;28;20056;-72
2021/04/14 08:56:57;;;;;;;6.70;5.88;;;23.00;40.70;;;;;;5072836;28;20590;-73
2021/04/14 08:59:25;;;;;;;7.80;5.80;;;23.50;40.00;;;;;;5073155;28;20039;-75
2021/04/14 09:01:52;;;;;;;9.25;6.25;;;23.90;39.40;;;;;;5070619;28;20423;-73
2021/04/14 09:04:19;;;;;;;5.63;5.10;;;24.10;38.70;;;;;;5073078;28;20028;-71
2021/04/14 09:06:47;;;;;;;17.63;6.00;;;23.80;38.10;;;;;;5073170;28;20423;-74
2021/04/14 09:09:22;;;;;;;10.38;7.40;;;23.30;38.00;;;;;;5072792;28;20065;-73
2021/04/14 09:12:08;;;;;;;16.13;9.55;;;22.80;38.60;;;;;;5072683;28;20028;-73
2021/04/14 09:14:34;;;;;;;38.55;11.50;;;22.60;40.50;;;;;;5070481;28;20024;-73
2021/04/14 09:17:15;;;;;;;17.13;10.35;;;22.60;41.20;;;;;;5069561;28;20032;-73
2021/04/14 09:19:50;;;;;;;14.27;10.23;;;22.50;41.40;;;;;;5071300;28;20044;-73
2021/04/14 09:22:20;;;;;;;19.83;11.23;;;22.40;41.40;;;;;;5071036;28;20021;-72
2021/04/14 09:24:54;;;;;;;47.75;13.38;;;22.30;42.00;;;;;;5071240;28;20028;-73
2021/04/14 09:27:37;;;;;;;19.70;11.43;;;22.10;42.50;;;;;;5072760;28;20020;-72
2021/04/14 09:30:31;;;;;;;20.55;11.00;;;22.10;42.90;;;;;;5071619;28;20056;-74
2021/04/14 09:33:05;;;;;;;22.98;10.52;;;22.10;42.90;;;;;;5071340;28;20580;-73
2021/04/14 09:35:31;;;;;;;21.85;10.48;;;22.20;42.80;;;;;;5072938;28;20032;-73
2021/04/14 09:38:09;;;;;;;31.42;11.15;;;22.10;42.70;;;;;;5070462;28;20032;-74
2021/04/14 09:40:37;;;;;;;15.70;10.35;;;21.80;42.60;;;;;;5071990;28;20028;-73
2021/04/14 09:43:16;;;;;;;14.40;9.55;;;21.60;42.90;;;;;;5071902;28;20028;-72
2021/04/14 09:46:00;;;;;;;19.17;9.85;;;21.30;43.20;;;;;;5070914;28;20025;-74
2021/04/14 09:48:47;;;;;;;15.98;10.05;;;21.40;43.40;;;;;;5071572;28;20094;-72
2021/04/14 09:51:38;;;;;;;30.92;12.93;;;21.30;43.30;;;;;;5072299;28;20094;-73
2021/04/14 09:54:14;;;;;;;19.27;12.07;;;21.20;43.70;;;;;;5070394;28;20039;-73
2021/04/14 09:56:52;;;;;;;18.27;10.43;;;21.40;44.00;;;;;;5069454;28;20020;-73
2021/04/14 09:59:26;;;;;;;14.15;10.00;;;21.50;43.40;;;;;;5073281;28;20081;-72
2021/04/14 10:02:02;;;;;;;16.60;10.07;;;21.80;43.30;;;;;;5071914;28;20036;-73
2021/04/14 10:04:28;;;;;;;23.88;12.05;;;22.00;42.90;;;;;;5072533;28;20024;-73
2021/04/14 10:06:56;;;;;;;16.67;9.32;;;22.10;42.80;;;;;;5071604;28;20027;-72
2021/04/14 10:09:29;;;;;;;12.50;9.32;;;22.10;42.40;;;;;;5072557;28;20351;-72
2021/04/14 10:11:55;;;;;;;15.38;9.32;;;22.10;42.30;;;;;;5072291;28;20036;-72
2021/04/14 10:14:24;;;;;;;18.95;9.52;;;22.10;42.40;;;;;;5073252;28;20051;-72
2021/04/14 10:16:51;;;;;;;14.27;9.95;;;22.30;42.10;;;;;;5072987;28;20381;-72
2021/04/14 10:19:30;;;;;;;19.63;9.07;;;22.50;42.00;;;;;;5073026;28;20057;-72
2021/04/14 10:21:56;;;;;;;17.55;9.63;;;22.70;41.60;;;;;;5073009;28;20355;-73
2021/04/14 10:24:22;;;;;;;20.17;9.75;;;22.80;41.60;;;;;;5072655;28;20036;-73
2021/04/14 10:26:54;;;;;;;15.95;9.48;;;22.90;41.50;;;;;;5072513;28;20024;-73
2021/04/14 10:29:27;;;;;;;16.58;9.43;;;22.90;41.10;;;;;;5069650;28;20017;-74
2021/04/14 10:31:57;;;;;;;18.40;9.73;;;22.60;41.00;;;;;;5072212;28;20567;-73
2021/04/14 10:34:29;;;;;;;12.18;9.40;;;22.20;41.30;;;;;;5071484;28;20032;-73
2021/04/14 10:36:56;;;;;;;14.80;9.50;;;21.90;41.90;;;;;;5072645;28;20017;-74
2021/04/14 10:39:30;;;;;;;13.07;9.85;;;21.70;42.40;;;;;;5072529;28;20352;-72
2021/04/14 10:41:56;;;;;;;14.30;9.52;;;21.60;42.70;;;;;;5072447;28;20024;-74
2021/04/14 10:44:25;;;;;;;29.20;10.40;;;21.60;42.90;;;;;;5071564;28;20437;-72
2021/04/14 10:47:02;;;;;;;15.38;10.10;;;21.50;42.80;;;;;;5072516;28;20432;-73
2021/04/14 10:49:30;;;;;;;14.27;10.10;;;21.40;43.10;;;;;;5072100;28;20017;-72
2021/04/14 10:52:01;;;;;;;13.90;9.40;;;21.70;43.40;;;;;;5072201;28;20037;-72
2021/04/14 10:54:31;;;;;;;13.50;8.90;;;22.20;43.10;;;;;;5072577;28;20123;-73
2021/04/14 10:57:08;;;;;;;14.30;9.50;;;22.90;42.30;;;;;;5072527;28;20032;-73
2021/04/14 10:59:35;;;;;;;15.02;9.10;;;23.20;41.20;;;;;;5070563;28;20031;-73
2021/04/14 11:02:08;;;;;;;14.55;10.15;;;23.80;41.00;;;;;;5071951;28;20417;-71
2021/04/14 11:04:40;;;;;;;21.05;11.93;;;24.60;40.20;;;;;;5070785;28;20070;-73
2021/04/14 11:07:10;;;;;;;14.98;9.85;;;25.10;39.30;;;;;;5071026;28;20029;-72
2021/04/14 11:09:41;;;;;;;12.68;9.00;;;25.30;38.80;;;;;;5072489;28;20086;-73
2021/04/14 11:12:13;;;;;;;12.02;8.45;;;25.10;38.50;;;;;;5066222;28;20028;-74
2021/04/14 11:14:44;;;;;;;13.52;9.23;;;24.90;38.40;;;;;;5071119;28;20021;-73
2021/04/14 11:17:18;;;;;;;16.13;9.63;;;24.80;38.50;;;;;;5070096;28;20016;-71
2021/04/14 11:20:07;;;;;;;17.88;9.23;;;24.70;38.50;;;;;;5073559;28;20450;-74
2021/04/14 11:22:44;;;;;;;19.10;8.98;;;24.40;38.70;;;;;;5072595;28;20582;-72
2021/04/14 11:25:21;;;;;;;20.52;9.40;;;24.30;39.00;;;;;;5074934;28;20020;-72
2021/04/14 11:28:00;;;;;;;16.15;9.35;;;24.40;39.10;;;;;;5074777;28;20024;-74
2021/04/14 11:30:28;;;;;;;18.48;9.15;;;24.50;38.80;;;;;;5074481;28;20028;-73
2021/04/14 11:32:56;;;;;;;13.20;9.70;;;24.50;38.80;;;;;;5074642;28;20120;-73
2021/04/14 11:35:52;;;;;;;13.95;8.40;;;24.30;38.80;;;;;;5074799;28;20025;-73
2021/04/14 11:38:26;;;;;;;12.95;9.15;;;24.00;39.00;;;;;;5065549;28;20040;-72
2021/04/14 11:40:53;;;;;;;14.98;8.25;;;23.70;38.80;;;;;;5071983;28;20115;-73
2021/04/14 11:43:34;;;;;;;19.90;9.35;;;23.40;39.20;;;;;;5073212;28;20025;-73
2021/04/14 11:46:06;;;;;;;11.75;8.55;;;23.10;39.60;;;;;;5073178;28;20025;-73
2021/04/14 11:48:39;;;;;;;11.13;9.07;;;23.00;39.90;;;;;;5072015;28;20155;-72
2021/04/14 11:51:14;;;;;;;13.48;8.45;;;22.70;40.00;;;;;;5074580;28;20466;-73
2021/04/14 11:53:56;;;;;;;15.68;8.80;;;22.10;40.20;;;;;;5075143;28;20151;-73
2021/04/14 11:56:28;;;;;;;14.77;8.93;;;21.40;41.00;;;;;;5073232;28;20072;-73
2021/04/14 11:58:54;;;;;;;13.90;8.57;;;20.90;41.80;;;;;;5074840;28;20105;-72
2021/04/14 12:01:24;;;;;;;11.07;8.25;;;20.40;42.50;;;;;;5074960;28;20486;-73
2021/04/14 12:03:50;;;;;;;11.70;8.60;;;20.00;43.20;;;;;;5075249;28;20035;-73
2021/04/14 12:06:16;;;;;;;15.85;9.52;;;19.60;43.80;;;;;;5073606;28;20022;-71
2021/04/14 12:08:42;;;;;;;13.95;9.02;;;19.30;44.40;;;;;;5074848;28;20100;-73
2021/04/14 12:11:20;;;;;;;15.73;9.43;;;19.00;45.00;;;;;;5074989;28;20029;-72
2021/04/14 12:13:47;;;;;;;14.20;8.45;;;18.70;45.80;;;;;;5073281;28;20103;-72
2021/04/14 12:16:13;;;;;;;13.60;10.18;;;18.40;46.00;;;;;;5074882;28;20104;-71
2021/04/14 12:18:40;;;;;;;11.52;8.57;;;18.20;46.50;;;;;;5074488;28;20048;-73
2021/04/14 12:21:06;;;;;;;15.57;9.48;;;18.10;46.90;;;;;;5074659;28;20082;-71
2021/04/14 12:23:32;;;;;;;8.95;7.97;;;17.90;47.00;;;;;;5074422;28;20017;-71
2021/04/14 12:25:58;;;;;;;10.57;8.02;;;17.80;47.30;;;;;;5073474;28;20066;-73
2021/04/14 12:28:24;;;;;;;14.05;9.15;;;17.80;47.50;;;;;;5084185;28;20020;-76
2021/04/14 12:30:49;;;;;;;14.55;9.05;;;17.80;47.50;;;;;;5076640;28;20535;-76
2021/04/14 12:33:15;;;;;;;10.52;8.57;;;17.70;47.70;;;;;;5074738;28;20039;-76
2021/04/14 12:35:41;;;;;;;12.93;8.32;;;17.60;47.70;;;;;;5075065;28;20020;-78
2021/04/14 12:38:07;;;;;;;14.52;8.48;;;17.50;47.80;;;;;;5075526;28;20111;-77
2021/04/14 12:40:33;;;;;;;14.50;7.95;;;17.40;48.00;;;;;;5075228;28;20039;-77
2021/04/14 12:42:59;;;;;;;12.82;7.85;;;17.30;48.30;;;;;;5075400;28;20027;-78
2021/04/14 12:45:39;;;;;;;11.38;8.30;;;17.30;48.40;;;;;;5075119;28;20024;-77
2021/04/14 12:48:11;;;;;;;13.40;8.52;;;17.20;48.50;;;;;;5075091;28;20020;-77
2021/04/14 12:50:37;;;;;;;11.93;8.65;;;17.20;49.30;;;;;;5054725;28;20028;-78
2021/04/14 12:53:05;;;;;;;14.82;9.02;;;17.20;48.90;;;;;;5054642;28;20463;-78
2021/04/14 12:55:42;;;;;;;12.23;7.82;;;17.20;49.00;;;;;;5058802;28;20458;-77